createdAt,value
2023-10-20T00:01:49.677Z,21.35
2023-10-20T00:04:16.456Z,22.63
2023-10-20T00:06:42.954Z,23.17
2023-10-20T00:09:10.620Z,22.63
2023-10-20T00:11:37.118Z,21.83
2023-10-20T00:14:03.622Z,21.85
2023-10-20T00:16:30.455Z,21.38
2023-10-20T00:18:57.425Z,22.17
2023-10-20T00:21:26.763Z,23.45
2023-10-20T00:23:56.088Z,23.55
2023-10-20T00:26:22.537Z,22.40
2023-10-20T00:28:48.961Z,23.42
2023-10-20T00:31:15.321Z,22.10
2023-10-20T00:33:42.008Z,23.10
2023-10-20T00:36:08.483Z,23.10
2023-10-20T00:38:35.297Z,24.15
2023-10-20T00:41:01.904Z,22.48
2023-10-20T00:43:35.689Z,23.42
2023-10-20T00:46:02.897Z,23.75
2023-10-20T00:48:29.834Z,24.20
2023-10-20T00:50:56.403Z,22.90
2023-10-20T00:53:23.065Z,23.42
2023-10-20T00:55:49.692Z,24.52
2023-10-20T00:58:19.193Z,23.38
2023-10-20T01:00:45.751Z,22.55
2023-10-20T01:03:12.436Z,23.27
2023-10-20T01:05:39.631Z,22.65
2023-10-20T01:08:06.619Z,22.50
2023-10-20T01:10:33.054Z,20.40
2023-10-20T01:12:59.591Z,23.38
2023-10-20T01:15:26.314Z,23.55
2023-10-20T01:17:52.916Z,23.80
2023-10-20T01:20:19.651Z,21.20
2023-10-20T01:22:46.140Z,22.73
2023-10-20T01:25:12.619Z,22.15
2023-10-20T01:27:39.212Z,23.10
2023-10-20T01:30:06.243Z,22.90
2023-10-20T01:32:32.926Z,23.83
2023-10-20T01:34:59.512Z,21.92
2023-10-20T01:37:26.206Z,23.40
2023-10-20T01:39:52.688Z,24.13
2023-10-20T01:42:19.345Z,24.33
2023-10-20T01:44:45.736Z,24.00
2023-10-20T01:47:12.203Z,22.42
2023-10-20T01:49:38.732Z,22.58
2023-10-20T01:52:05.120Z,23.20
2023-10-20T01:54:31.842Z,20.42
2023-10-20T01:56:58.420Z,23.48
2023-10-20T01:59:28.509Z,23.17
2023-10-20T02:01:55.047Z,20.52
2023-10-20T02:04:21.607Z,23.15
2023-10-20T02:06:48.084Z,21.98
2023-10-20T02:09:14.443Z,23.48
2023-10-20T02:11:40.875Z,24.63
2023-10-20T02:14:07.391Z,23.38
2023-10-20T02:16:34.389Z,20.60
2023-10-20T02:19:00.972Z,22.35
2023-10-20T02:21:29.710Z,22.48
2023-10-20T02:23:58.684Z,22.88
2023-10-20T02:26:25.188Z,21.02
2023-10-20T02:28:51.788Z,22.45
2023-10-20T02:31:19.010Z,21.85
2023-10-20T02:33:45.648Z,20.80
2023-10-20T02:36:23.018Z,23.50
2023-10-20T02:38:51.674Z,20.90
2023-10-20T02:41:18.150Z,19.65
2023-10-20T02:43:44.679Z,21.60
2023-10-20T02:46:11.243Z,21.48
2023-10-20T02:48:37.962Z,21.25
2023-10-20T02:51:12.110Z,20.88
2023-10-20T02:53:38.884Z,21.33
2023-10-20T02:56:11.116Z,20.67
2023-10-20T02:58:37.578Z,17.02
2023-10-20T03:01:06.759Z,22.00
2023-10-20T03:03:33.696Z,22.00
2023-10-20T03:06:01.292Z,21.15
2023-10-20T03:08:31.750Z,21.75
2023-10-20T03:11:01.491Z,19.65
2023-10-20T03:13:30.808Z,22.45
2023-10-20T03:15:57.337Z,21.58
2023-10-20T03:18:23.991Z,21.23
2023-10-20T03:20:51.407Z,21.88
2023-10-20T03:23:18.706Z,21.17
2023-10-20T03:25:45.405Z,21.67
2023-10-20T03:28:11.871Z,16.95
2023-10-20T03:30:39.323Z,22.00
2023-10-20T03:33:07.436Z,21.58
2023-10-20T03:35:34.739Z,21.17
2023-10-20T03:38:01.881Z,20.63
2023-10-20T03:40:31.740Z,22.25
2023-10-20T03:43:00.993Z,20.73
2023-10-20T03:45:27.433Z,21.30
2023-10-20T03:47:59.435Z,21.67
2023-10-20T03:50:26.001Z,21.60
2023-10-20T03:52:54.912Z,20.73
2023-10-20T03:55:21.346Z,23.38
2023-10-20T03:57:47.947Z,22.35
2023-10-20T04:00:15.637Z,21.20
2023-10-20T04:02:42.377Z,22.75
2023-10-20T04:05:09.162Z,22.13
2023-10-20T04:07:35.550Z,20.58
2023-10-20T04:10:02.005Z,22.70
2023-10-20T04:12:31.199Z,21.77
2023-10-20T04:14:57.670Z,21.90
2023-10-20T04:17:24.707Z,21.25
2023-10-20T04:19:51.238Z,23.10
2023-10-20T04:22:18.109Z,21.50
2023-10-20T04:24:44.573Z,22.48
2023-10-20T04:27:12.878Z,22.35
2023-10-20T04:29:39.356Z,22.20
2023-10-20T04:32:05.884Z,22.40
2023-10-20T04:34:32.696Z,23.67
2023-10-20T04:36:59.309Z,24.27
2023-10-20T04:39:25.840Z,21.63
2023-10-20T04:42:00.536Z,24.92
2023-10-20T04:44:27.554Z,21.65
2023-10-20T04:46:58.225Z,22.48
2023-10-20T04:49:30.443Z,22.67
2023-10-20T04:51:58.212Z,20.70
2023-10-20T04:54:24.715Z,20.65
2023-10-20T04:56:51.351Z,21.38
2023-10-20T04:59:20.334Z,22.10
2023-10-20T05:01:46.831Z,22.35
2023-10-20T05:04:15.657Z,22.73
2023-10-20T05:06:45.209Z,23.08
2023-10-20T05:09:12.253Z,22.52
2023-10-20T05:11:38.842Z,19.40
2023-10-20T05:14:05.432Z,21.65
2023-10-20T05:16:32.110Z,20.63
2023-10-20T05:19:01.873Z,21.90
2023-10-20T05:21:31.849Z,22.10
2023-10-20T05:23:58.247Z,21.80
2023-10-20T05:26:24.761Z,21.85
2023-10-20T05:28:51.246Z,20.55
2023-10-20T05:31:22.987Z,19.40
2023-10-20T05:33:49.607Z,19.95
2023-10-20T05:36:16.104Z,18.85
2023-10-20T05:38:42.733Z,23.05
2023-10-20T05:41:11.720Z,21.23
2023-10-20T05:43:39.155Z,23.70
2023-10-20T05:46:07.985Z,22.23
2023-10-20T05:48:37.259Z,22.52
2023-10-20T05:51:06.167Z,22.60
2023-10-20T05:53:32.846Z,20.58
2023-10-20T05:56:01.875Z,20.02
2023-10-20T05:58:28.301Z,19.90
2023-10-20T06:01:03.134Z,20.70
2023-10-20T06:03:30.482Z,21.08
2023-10-20T06:06:01.143Z,21.35
2023-10-20T06:08:29.396Z,20.00
2023-10-20T06:11:08.498Z,19.77
2023-10-20T06:13:37.876Z,19.20
2023-10-20T06:16:06.309Z,19.92
2023-10-20T06:18:36.124Z,18.35
2023-10-20T06:21:05.067Z,16.20
2023-10-20T06:23:32.176Z,19.15
2023-10-20T06:26:02.179Z,16.02
2023-10-20T06:28:29.669Z,19.33
2023-10-20T06:30:56.234Z,18.48
2023-10-20T06:33:22.699Z,16.10
2023-10-20T06:35:50.888Z,18.23
2023-10-20T06:38:18.560Z,17.33
2023-10-20T06:40:45.134Z,17.55
2023-10-20T06:43:11.642Z,17.40
2023-10-20T06:45:38.295Z,18.27
2023-10-20T06:48:08.178Z,15.40
2023-10-20T06:50:37.568Z,15.43
2023-10-20T06:53:08.708Z,13.75
2023-10-20T06:56:00.583Z,12.85
2023-10-20T06:58:29.009Z,15.02
2023-10-20T07:00:55.433Z,14.43
2023-10-20T07:03:22.089Z,13.40
2023-10-20T07:05:48.855Z,12.77
2023-10-20T07:08:15.375Z,13.65
2023-10-20T07:10:41.938Z,14.93
2023-10-20T07:13:09.956Z,13.38
2023-10-20T07:15:36.786Z,14.52
2023-10-20T07:18:07.051Z,12.85
2023-10-20T07:20:41.149Z,14.13
2023-10-20T07:23:07.697Z,12.35
2023-10-20T07:25:35.256Z,12.65
2023-10-20T07:28:02.621Z,11.45
2023-10-20T07:30:32.522Z,11.32
2023-10-20T07:33:01.512Z,11.85
2023-10-20T07:35:28.358Z,10.60
2023-10-20T07:37:55.020Z,11.60
2023-10-20T07:40:21.574Z,8.75
2023-10-20T07:42:48.174Z,9.23
2023-10-20T07:45:14.958Z,8.32
2023-10-20T07:47:41.629Z,8.43
2023-10-20T07:50:08.462Z,8.65
2023-10-20T07:52:37.967Z,7.63
2023-10-20T07:55:05.592Z,8.40
2023-10-20T07:57:32.344Z,6.18
2023-10-20T08:00:00.397Z,7.72
2023-10-20T08:02:26.997Z,5.75
2023-10-20T08:04:56.777Z,8.15
2023-10-20T08:07:23.813Z,6.18
2023-10-20T08:09:50.469Z,6.75
2023-10-20T08:12:17.084Z,5.60
2023-10-20T08:14:43.727Z,5.55
2023-10-20T08:17:10.228Z,5.13
2023-10-20T08:19:36.952Z,5.22
2023-10-20T08:22:03.393Z,5.97
2023-10-20T08:24:30.035Z,5.20
2023-10-20T08:26:56.548Z,4.97
2023-10-20T08:29:23.151Z,4.88
2023-10-20T08:31:49.673Z,5.03
2023-10-20T08:34:16.244Z,4.32
2023-10-20T08:36:42.708Z,4.28
2023-10-20T08:39:09.354Z,4.40
2023-10-20T08:41:35.892Z,3.92
2023-10-20T08:44:37.355Z,4.28
2023-10-20T08:47:04.804Z,4.47
2023-10-20T08:49:31.588Z,3.67
2023-10-20T08:52:04.369Z,4.20
2023-10-20T08:54:31.813Z,4.20
2023-10-20T08:57:07.397Z,3.90
2023-10-20T08:59:35.443Z,3.65
2023-10-20T09:02:02.473Z,3.38
2023-10-20T09:04:32.011Z,4.07
2023-10-20T09:07:00.412Z,3.50
2023-10-20T09:09:27.056Z,3.47
2023-10-20T09:11:56.402Z,3.83
2023-10-20T09:14:23.048Z,3.45
2023-10-20T09:16:51.278Z,3.90
2023-10-20T09:19:17.891Z,3.95
2023-10-20T09:21:46.202Z,4.00
2023-10-20T09:24:15.587Z,3.50
2023-10-20T09:26:42.244Z,4.00
2023-10-20T09:29:09.857Z,3.50
2023-10-20T09:31:37.995Z,3.08
2023-10-20T09:34:04.847Z,3.50
2023-10-20T09:36:33.085Z,3.45
2023-10-20T09:39:25.642Z,3.47
2023-10-20T09:41:59.898Z,3.08
2023-10-20T09:44:46.813Z,3.15
2023-10-20T09:47:36.492Z,3.10
2023-10-20T09:50:03.238Z,3.17
2023-10-20T09:52:33.148Z,3.17
2023-10-20T09:55:02.828Z,3.00
2023-10-20T09:57:32.163Z,3.08
2023-10-20T10:00:00.613Z,3.25
2023-10-20T10:02:30.916Z,2.70
2023-10-20T10:04:58.958Z,3.20
2023-10-20T10:07:38.248Z,3.05
2023-10-20T10:10:09.074Z,2.95
2023-10-20T10:12:35.779Z,3.27
2023-10-20T10:15:07.661Z,2.80
2023-10-20T10:20:43.770Z,3.05
2023-10-20T10:23:11.993Z,2.17
2023-10-20T10:25:43.343Z,2.78
2023-10-20T10:28:14.795Z,3.15
2023-10-20T10:30:43.658Z,2.70
2023-10-20T10:33:12.351Z,2.50
2023-10-20T10:35:40.177Z,2.88
2023-10-20T10:38:18.580Z,2.70
2023-10-20T10:40:46.774Z,2.67
2023-10-20T10:43:18.040Z,2.90
2023-10-20T10:45:44.859Z,2.20
2023-10-20T10:48:15.044Z,2.80
2023-10-20T10:50:43.580Z,2.70
2023-10-20T10:53:11.293Z,2.22
2023-10-20T10:55:38.490Z,2.10
2023-10-20T10:58:10.641Z,2.10
2023-10-20T11:00:39.144Z,2.22
2023-10-20T11:03:10.261Z,2.30
2023-10-20T11:05:41.255Z,2.20
2023-10-20T11:08:09.624Z,2.25
2023-10-20T11:10:38.900Z,2.33
2023-10-20T11:13:12.310Z,2.30
2023-10-20T11:15:41.138Z,2.03
2023-10-20T11:18:11.385Z,1.80
2023-10-20T11:20:42.696Z,2.00
2023-10-20T11:23:10.706Z,1.92
2023-10-20T11:25:38.550Z,1.90
2023-10-20T11:28:08.205Z,1.80
2023-10-20T11:30:37.310Z,2.10
2023-10-20T11:33:05.371Z,1.90
2023-10-20T11:35:32.186Z,1.65
2023-10-20T11:37:59.584Z,1.70
2023-10-20T11:40:26.872Z,2.03
2023-10-20T11:42:59.348Z,1.70
2023-10-20T11:45:26.073Z,1.70
2023-10-20T11:47:53.039Z,1.50
2023-10-20T11:50:22.636Z,1.70
2023-10-20T11:52:49.492Z,1.70
2023-10-20T11:55:15.947Z,1.30
2023-10-20T11:57:43.097Z,1.50
2023-10-20T12:00:10.341Z,1.55
2023-10-20T12:02:41.077Z,1.40
2023-10-20T12:05:08.750Z,1.45
2023-10-20T12:07:38.813Z,1.02
2023-10-20T12:10:08.594Z,1.30
2023-10-20T12:12:38.228Z,1.05
2023-10-20T12:15:06.923Z,1.10
2023-10-20T12:17:33.510Z,1.10
2023-10-20T12:20:00.080Z,1.52
2023-10-20T12:22:26.474Z,1.35
2023-10-20T12:24:52.891Z,1.30
2023-10-20T12:27:19.320Z,0.88
2023-10-20T12:29:45.983Z,1.20
2023-10-20T12:32:12.491Z,1.50
2023-10-20T12:34:39.506Z,1.00
2023-10-20T12:37:06.094Z,0.90
2023-10-20T12:39:33.030Z,0.88
2023-10-20T12:42:02.654Z,1.20
2023-10-20T12:44:33.787Z,0.70
2023-10-20T12:47:00.676Z,0.95
2023-10-20T12:49:27.133Z,1.17
2023-10-20T12:51:56.758Z,0.82
2023-10-20T12:54:23.267Z,1.30
2023-10-20T12:56:49.700Z,1.15
2023-10-20T12:59:18.748Z,0.90
2023-10-20T13:01:45.476Z,1.15
2023-10-20T13:04:13.224Z,0.90
2023-10-20T13:06:53.792Z,1.02
2023-10-20T13:09:25.582Z,1.40
2023-10-20T13:11:56.174Z,0.88
2023-10-20T13:14:23.012Z,1.27
2023-10-20T13:16:49.836Z,0.82
2023-10-20T13:19:16.531Z,0.85
2023-10-20T13:21:43.749Z,1.42
2023-10-20T13:24:13.177Z,1.20
2023-10-20T13:26:39.837Z,0.68
2023-10-20T13:29:06.532Z,0.60
2023-10-20T13:31:35.301Z,1.13
2023-10-20T13:34:02.205Z,0.80
2023-10-20T13:36:31.139Z,0.65
2023-10-20T13:38:58.060Z,0.85
2023-10-20T13:41:25.814Z,1.00
2023-10-20T13:43:54.915Z,0.80
2023-10-20T13:46:21.790Z,0.98
2023-10-20T13:48:48.727Z,1.00
2023-10-20T13:51:15.391Z,0.63
2023-10-20T13:53:41.910Z,0.90
2023-10-20T13:56:08.433Z,0.77
2023-10-20T13:58:35.060Z,0.60
2023-10-20T14:01:10.361Z,0.68
2023-10-20T14:03:36.975Z,0.60
2023-10-20T14:06:05.451Z,0.63
2023-10-20T14:08:32.221Z,0.80
2023-10-20T14:10:59.914Z,0.80
2023-10-20T14:13:26.456Z,0.70
2023-10-20T14:15:53.014Z,0.68
2023-10-20T14:18:19.545Z,0.80
2023-10-20T14:20:46.145Z,0.77
2023-10-20T14:23:12.559Z,0.80
2023-10-20T14:25:39.050Z,0.90
2023-10-20T14:28:07.178Z,1.10
2023-10-20T14:30:34.704Z,0.90
2023-10-20T14:33:01.389Z,1.00
2023-10-20T14:35:28.504Z,0.85
2023-10-20T14:37:56.612Z,0.90
2023-10-20T14:40:23.037Z,1.02
2023-10-20T14:42:49.480Z,0.85
2023-10-20T14:45:15.945Z,1.10
2023-10-20T14:47:42.606Z,1.30
2023-10-20T14:50:09.346Z,1.00
2023-10-20T14:52:38.884Z,1.35
2023-10-20T14:55:09.107Z,1.52
2023-10-20T14:57:39.249Z,0.90
2023-10-20T15:00:07.514Z,1.10
2023-10-20T15:02:33.953Z,1.00
2023-10-20T15:05:03.708Z,0.90
2023-10-20T15:07:33.815Z,2.17
2023-10-20T15:10:03.580Z,1.40
2023-10-20T15:12:30.062Z,1.10
2023-10-20T15:14:56.561Z,0.95
2023-10-20T15:17:56.662Z,1.25
2023-10-20T15:20:32.218Z,0.95
2023-10-20T15:23:16.406Z,1.42
2023-10-20T15:25:44.944Z,3.72
2023-10-20T15:28:11.499Z,1.02
2023-10-20T15:30:38.225Z,0.90
2023-10-20T15:33:06.747Z,1.13
2023-10-20T15:35:38.568Z,1.75
2023-10-20T15:38:05.097Z,1.30
2023-10-20T15:40:37.215Z,1.15
2023-10-20T15:43:32.425Z,2.92
2023-10-20T15:46:03.908Z,2.40
2023-10-20T15:48:38.266Z,1.50
2023-10-20T15:51:08.469Z,1.50
2023-10-20T15:53:35.095Z,1.13
2023-10-20T15:56:13.928Z,1.20
2023-10-20T15:58:40.343Z,1.02
2023-10-20T16:01:10.639Z,1.50
2023-10-20T16:03:37.438Z,1.05
2023-10-20T16:06:04.306Z,1.30
2023-10-20T16:08:37.787Z,1.20
2023-10-20T16:11:06.373Z,1.40
2023-10-20T16:13:33.025Z,1.67
2023-10-20T16:15:59.495Z,1.70
2023-10-20T16:23:49.606Z,1.50
2023-10-20T16:26:28.456Z,1.90
2023-10-20T16:28:55.153Z,1.80
2023-10-20T16:31:23.212Z,1.60
2023-10-20T16:33:49.890Z,3.75
2023-10-20T16:36:16.572Z,3.50
2023-10-20T16:39:11.472Z,2.35
2023-10-20T16:45:34.250Z,2.30
2023-10-20T16:48:05.574Z,4.57
2023-10-20T16:50:47.899Z,7.82
2023-10-20T16:53:52.559Z,4.93
2023-10-20T16:56:19.278Z,3.60
2023-10-20T16:58:45.833Z,3.22
2023-10-20T17:01:12.308Z,5.20
2023-10-20T17:03:38.948Z,3.40
2023-10-20T17:06:08.547Z,3.72
2023-10-20T17:08:35.063Z,5.13
2023-10-20T17:11:05.850Z,5.60
2023-10-20T17:13:33.435Z,4.90
2023-10-20T17:16:08.797Z,3.47
2023-10-20T17:18:36.335Z,5.05
2023-10-20T17:21:10.368Z,6.38
2023-10-20T17:23:37.032Z,8.35
2023-10-20T17:26:04.962Z,3.53
2023-10-20T17:31:14.627Z,5.05
2023-10-20T17:33:41.239Z,5.15
2023-10-20T17:36:10.999Z,3.22
2023-10-20T17:38:48.246Z,2.97
2023-10-20T17:41:14.982Z,3.10
2023-10-20T17:43:41.788Z,4.05
2023-10-20T17:46:12.101Z,4.18
2023-10-20T17:48:52.774Z,5.40
2023-10-20T17:53:59.724Z,4.40
2023-10-20T18:00:11.910Z,4.20
2023-10-20T18:02:41.622Z,5.35
2023-10-20T18:05:08.647Z,4.40
2023-10-20T18:07:35.304Z,5.90
2023-10-20T18:10:02.143Z,5.32
2023-10-20T18:12:28.714Z,7.60
2023-10-20T18:14:55.333Z,6.65
2023-10-20T18:17:21.860Z,6.50
2023-10-20T18:19:48.394Z,5.28
2023-10-20T18:22:17.009Z,5.70
2023-10-20T18:24:46.482Z,6.35
2023-10-20T18:27:13.157Z,7.25
2023-10-20T18:29:39.850Z,6.90
2023-10-20T18:32:06.602Z,6.13
2023-10-20T18:34:33.040Z,6.03
2023-10-20T18:36:59.442Z,5.97
2023-10-20T18:39:25.933Z,5.88
2023-10-20T18:41:55.082Z,5.68
2023-10-20T18:44:21.622Z,6.32
2023-10-20T18:46:48.040Z,5.95
2023-10-20T18:49:14.471Z,6.00
2023-10-20T18:51:43.290Z,7.00
2023-10-20T18:54:10.208Z,8.75
2023-10-20T18:56:36.714Z,11.93
2023-10-20T18:59:03.561Z,9.65
2023-10-20T19:01:30.036Z,11.80
2023-10-20T19:03:56.599Z,8.80
2023-10-20T19:06:25.127Z,9.13
2023-10-20T19:08:51.573Z,9.20
2023-10-20T19:11:18.820Z,8.63
2023-10-20T19:13:45.262Z,8.65
2023-10-20T19:16:11.707Z,9.25
2023-10-20T19:18:38.456Z,8.27
2023-10-20T19:21:08.868Z,9.88
2023-10-20T19:23:35.639Z,10.77
2023-10-20T19:26:09.520Z,10.38
2023-10-20T19:28:39.106Z,10.52
2023-10-20T19:31:09.351Z,11.60
2023-10-20T19:33:36.950Z,12.80
2023-10-20T19:36:05.731Z,11.80
2023-10-20T19:38:35.433Z,12.10
2023-10-20T19:41:05.957Z,14.05
2023-10-20T19:43:32.409Z,13.85
2023-10-20T19:45:59.109Z,14.18
2023-10-20T19:48:25.668Z,15.70
2023-10-20T19:50:57.457Z,15.13
2023-10-20T19:53:24.215Z,14.43
2023-10-20T19:55:56.694Z,15.23
2023-10-20T19:58:23.426Z,15.98
2023-10-20T20:00:49.985Z,17.17
2023-10-20T20:03:16.581Z,16.83
2023-10-20T20:05:45.449Z,17.42
2023-10-20T20:08:12.078Z,18.52
2023-10-20T20:10:38.523Z,17.90
2023-10-20T20:13:07.723Z,18.13
2023-10-20T20:15:34.226Z,18.83
2023-10-20T20:18:00.762Z,18.10
2023-10-20T20:20:30.197Z,18.20
2023-10-20T20:22:56.606Z,18.50
2023-10-20T20:25:25.768Z,18.60
2023-10-20T20:27:57.862Z,18.50
2023-10-20T20:30:30.642Z,17.65
2023-10-20T20:32:57.147Z,17.75
2023-10-20T20:35:23.646Z,17.30
2023-10-20T20:37:56.160Z,17.98
2023-10-20T20:40:22.823Z,18.70
2023-10-20T20:42:49.367Z,17.30
2023-10-20T20:45:15.978Z,17.58
2023-10-20T20:47:57.627Z,17.08
2023-10-20T20:50:32.865Z,17.77
2023-10-20T20:53:07.702Z,17.83
2023-10-20T20:55:37.282Z,18.10
2023-10-20T20:58:24.064Z,17.23
2023-10-20T21:00:52.764Z,16.63
2023-10-20T21:03:19.404Z,17.75
2023-10-20T21:06:04.642Z,16.70
2023-10-20T21:08:31.262Z,17.40
2023-10-20T21:11:30.231Z,16.48
2023-10-20T21:16:52.120Z,16.08
2023-10-20T21:19:31.556Z,15.48
2023-10-20T21:22:07.015Z,15.02
2023-10-20T21:24:33.646Z,15.10
2023-10-20T21:27:00.265Z,15.25
2023-10-20T21:29:28.496Z,16.40
2023-10-20T21:31:55.528Z,15.43
2023-10-20T21:34:22.747Z,14.90
2023-10-20T21:36:56.343Z,15.20
2023-10-20T21:39:22.846Z,13.80
2023-10-20T21:41:49.276Z,14.15
2023-10-20T21:44:18.946Z,12.90
2023-10-20T21:46:48.872Z,12.27
2023-10-20T21:49:15.838Z,12.55
2023-10-20T21:51:42.322Z,11.88
2023-10-20T21:54:09.023Z,11.20
2023-10-20T21:56:35.586Z,12.13
2023-10-20T21:59:02.246Z,11.32
2023-10-20T22:01:28.806Z,11.73
2023-10-20T22:03:55.284Z,11.23
2023-10-20T22:06:21.924Z,10.23
2023-10-20T22:08:48.504Z,10.23
2023-10-20T22:11:14.973Z,11.07
2023-10-20T22:13:41.461Z,11.02
2023-10-20T22:16:08.250Z,10.70
2023-10-20T22:18:37.909Z,11.35
2023-10-20T22:21:07.100Z,10.63
2023-10-20T22:23:35.972Z,10.02
2023-10-20T22:26:02.540Z,10.68
2023-10-20T22:28:31.215Z,10.63
2023-10-20T22:30:58.933Z,8.38
2023-10-20T22:33:25.443Z,9.20
2023-10-20T22:35:54.072Z,10.80
2023-10-20T22:38:20.709Z,9.75
2023-10-20T22:40:47.120Z,9.82
2023-10-20T22:43:13.751Z,10.10
2023-10-20T22:45:40.925Z,9.50
2023-10-20T22:48:07.665Z,9.27
2023-10-20T22:50:34.155Z,8.82
2023-10-20T22:53:00.601Z,9.45
2023-10-20T22:55:27.201Z,9.13
2023-10-20T22:57:56.515Z,9.07
2023-10-20T23:00:23.074Z,8.65
2023-10-20T23:02:49.862Z,9.23
2023-10-20T23:05:19.513Z,8.85
2023-10-20T23:07:46.194Z,8.77
2023-10-20T23:10:12.631Z,9.48
2023-10-20T23:12:39.056Z,8.55
2023-10-20T23:15:09.634Z,9.35
2023-10-20T23:17:37.040Z,8.70
2023-10-20T23:20:03.741Z,8.73
2023-10-20T23:22:31.072Z,8.93
2023-10-20T23:24:57.771Z,9.00
2023-10-20T23:27:24.284Z,8.32
2023-10-20T23:29:50.926Z,9.13
2023-10-20T23:32:17.591Z,8.57
2023-10-20T23:34:44.090Z,8.25
2023-10-20T23:37:10.639Z,8.35
2023-10-20T23:39:37.579Z,8.25
2023-10-20T23:42:07.049Z,8.30
2023-10-20T23:44:33.653Z,7.53
2023-10-20T23:47:00.300Z,7.38
2023-10-20T23:49:26.902Z,7.63
2023-10-20T23:51:55.955Z,7.90
2023-10-20T23:54:22.496Z,7.75
2023-10-20T23:56:49.020Z,6.88
2023-10-20T23:59:15.602Z,7.13
